Time;durP1;ratioP1;P1;durP2;ratioP2;P2;SDS_P1;SDS_P2;PMS_P1;PMS_P2;Temp;Humidity;BMP_temperature;BMP_pressure;BME280_temperature;BME280_humidity;BME280_pressure;Samples;Min_cycle;Max_cycle;Signal;HPM_P1;HPM_P2
2022/09/17 00:01:47;;;;;;;;;2.00;1.00;;;;;16.86;52.68;155287.47;4995416;28;45493;-76
2022/09/17 00:04:13;;;;;;;;;3.00;1.67;;;;;16.74;52.75;155257.00;4986610;28;46021;-76
2022/09/17 00:06:38;;;;;;;;;1.33;1.00;;;;;16.78;52.88;155266.25;4961006;28;45631;-76
2022/09/17 00:09:05;;;;;;;;;2.00;2.00;;;;;16.82;52.67;155278.19;4994842;28;45472;-76
2022/09/17 00:11:34;;;;;;;;;3.00;1.00;;;;;16.83;52.81;155280.88;4988597;28;45531;-76
2022/09/17 00:14:00;;;;;;;;;1.67;1.67;;;;;16.71;52.85;155249.03;4993450;28;47455;-76
2022/09/17 00:16:26;;;;;;;;;1.00;1.00;;;;;16.76;52.99;155262.25;4989615;28;45507;-75
2022/09/17 00:18:51;;;;;;;;;1.00;1.00;;;;;16.72;53.18;155251.72;4983460;28;45442;-76
2022/09/17 00:21:18;;;;;;;;;1.00;1.00;;;;;16.60;53.10;155219.97;4993910;28;45381;-76
2022/09/17 00:23:44;;;;;;;;;1.00;0.00;;;;;16.69;53.31;155243.75;4994265;28;46275;-76
2022/09/17 00:26:10;;;;;;;;;1.00;1.00;;;;;16.67;53.30;155238.50;4971369;28;45555;-76
2022/09/17 00:28:35;;;;;;;;;1.00;1.00;;;;;16.64;53.50;155231.84;4994299;28;45470;-75
2022/09/17 00:31:06;;;;;;;;;0.67;0.67;;;;;16.60;53.21;155219.97;4993941;28;45216;-76
2022/09/17 00:33:32;;;;;;;;;0.00;0.00;;;;;16.56;53.24;155209.41;4990986;28;48398;-76
2022/09/17 00:36:02;;;;;;;;;0.33;0.33;;;;;16.47;53.59;155186.94;4993400;28;45377;-76
2022/09/17 00:38:28;;;;;;;;;1.00;1.00;;;;;16.53;53.27;155201.44;4993536;28;45684;-75
2022/09/17 00:40:54;;;;;;;;;1.00;1.00;;;;;16.51;53.56;155197.53;4994207;28;45460;-76
2022/09/17 00:43:48;;;;;;;;;0.67;0.67;;;;;16.56;53.53;155210.72;4992840;28;45385;-76
2022/09/17 00:46:36;;;;;;;;;1.67;1.00;;;;;16.53;53.60;155202.81;4992915;28;45374;-76
2022/09/17 00:49:13;;;;;;;;;1.00;1.00;;;;;16.51;53.64;155197.53;4994405;28;45425;-76
2022/09/17 00:51:44;;;;;;;;;1.67;1.00;;;;;16.52;53.75;155200.16;4990387;28;45361;-76
2022/09/17 00:54:10;;;;;;;;;1.00;1.00;;;;;16.54;53.49;155204.13;4986139;28;46370;-76
2022/09/17 00:56:39;;;;;;;;;0.33;0.33;;;;;16.53;53.76;155202.81;4993448;28;45424;-76
2022/09/17 00:59:05;;;;;;;;;1.00;1.00;;;;;16.55;53.62;155206.75;4994075;28;45370;-76
2022/09/17 01:01:31;;;;;;;;;3.00;1.00;;;;;16.49;53.39;155190.91;4994183;28;45432;-76
2022/09/17 01:03:56;;;;;;;;;1.00;1.00;;;;;16.48;53.80;155188.25;4993456;28;46138;-76
2022/09/17 01:06:44;;;;;;;;;1.00;1.00;;;;;16.33;53.36;155149.94;4978046;28;45407;-76
2022/09/17 01:09:24;;;;;;;;;1.67;1.00;;;;;16.42;53.81;155173.72;4978750;28;45445;-76
2022/09/17 01:12:00;;;;;;;;;0.33;0.33;;;;;16.43;53.82;155176.34;4989915;28;45302;-76
2022/09/17 01:14:50;;;;;;;;;1.00;1.00;;;;;16.41;53.84;155171.06;4980916;28;46231;-76
2022/09/17 01:17:27;;;;;;;;;1.00;1.00;;;;;16.42;53.65;155173.72;4981788;28;45418;-76
2022/09/17 01:20:17;;;;;;;;;2.00;2.00;;;;;16.38;53.59;155164.47;4993358;28;45266;-76
2022/09/17 01:23:04;;;;;;;;;2.00;1.67;;;;;16.36;53.45;155157.84;4981191;28;45371;-76
2022/09/17 01:25:41;;;;;;;;;0.33;0.33;;;;;16.34;53.95;155153.91;4993324;28;45706;-76
2022/09/17 01:28:25;;;;;;;;;3.00;1.00;;;;;16.36;53.53;155157.84;4992623;28;45317;-76
2022/09/17 01:30:51;;;;;;;;;1.00;1.00;;;;;16.30;53.73;155143.34;4975739;28;45566;-76
2022/09/17 01:33:36;;;;;;;;;1.00;1.00;;;;;16.27;53.94;155135.38;4991384;28;45524;-76
2022/09/17 01:36:26;;;;;;;;;0.67;0.67;;;;;16.25;53.89;155131.44;4991422;28;45404;-76
2022/09/17 01:39:25;;;;;;;;;1.00;1.00;;;;;16.23;54.04;155124.84;4960617;28;45478;-76
2022/09/17 01:41:59;;;;;;;;;4.00;1.00;;;;;16.22;53.87;155122.16;4949182;28;45441;-69
2022/09/17 01:44:31;;;;;;;;;0.00;0.00;;;;;16.19;53.98;155114.25;4950187;28;45441;-69
2022/09/17 01:47:18;;;;;;;;;1.00;1.00;;;;;16.17;54.15;155108.97;4925420;28;48391;-69
2022/09/17 01:49:43;;;;;;;;;1.00;1.00;;;;;16.16;54.26;155107.66;4930111;28;45508;-69
2022/09/17 01:52:13;;;;;;;;;1.00;1.00;;;;;16.13;54.20;155099.75;4947852;28;45409;-70
2022/09/17 01:55:01;;;;;;;;;1.00;1.00;;;;;16.10;53.99;155091.78;4947311;28;45387;-69
2022/09/17 01:57:33;;;;;;;;;1.00;1.00;;;;;16.01;54.48;155068.00;4924345;28;47508;-69
2022/09/17 02:00:04;;;;;;;;;0.00;0.00;;;;;16.09;54.31;155089.16;4944090;28;45844;-69
2022/09/17 02:02:38;;;;;;;;;1.00;1.00;;;;;16.09;54.14;155087.84;4952950;28;45528;-70
2022/09/17 02:05:13;;;;;;;;;1.00;1.00;;;;;16.05;54.02;155078.56;4947897;28;45523;-69
2022/09/17 02:07:51;;;;;;;;;1.33;0.33;;;;;15.83;54.29;155023.09;4938864;28;45480;-69
2022/09/17 02:10:21;;;;;;;;;0.33;0.33;;;;;16.01;54.18;155068.00;4949245;28;45525;-70
2022/09/17 02:13:01;;;;;;;;;0.67;0.67;;;;;15.99;54.40;155062.69;4946753;28;45459;-70
2022/09/17 02:15:33;;;;;;;;;0.00;0.00;;;;;15.98;54.12;155060.09;4950138;28;45908;-69
2022/09/17 02:18:09;;;;;;;;;0.00;0.00;;;;;15.98;54.08;155061.41;4955939;28;46569;-70
2022/09/17 02:20:47;;;;;;;;;0.00;0.00;;;;;15.96;53.83;155054.78;4995013;28;45478;-69
2022/09/17 02:23:19;;;;;;;;;0.00;0.00;;;;;15.97;54.25;155057.47;4970080;28;45357;-69
2022/09/17 02:26:03;;;;;;;;;2.00;0.00;;;;;15.92;54.28;155045.56;4994154;27;45482;-70
2022/09/17 02:28:37;;;;;;;;;0.00;0.00;;;;;15.96;53.97;155054.78;4995204;28;47373;-70
2022/09/17 02:31:03;;;;;;;;;2.00;1.00;;;;;15.97;54.17;155057.47;4991105;27;45549;-70
2022/09/17 02:33:32;;;;;;;;;0.00;0.00;;;;;15.88;54.13;155033.69;4994954;28;45464;-69
2022/09/17 02:35:57;;;;;;;;;0.67;0.67;;;;;15.95;54.17;155053.47;4994335;28;45571;-69
2022/09/17 02:38:29;;;;;;;;;0.33;0.33;;;;;15.90;54.08;155038.97;4973020;28;47100;-69
2022/09/17 02:41:11;;;;;;;;;0.00;0.00;;;;;15.94;54.03;155050.81;4972930;28;45768;-76
2022/09/17 02:44:18;;;;;;;;;0.00;0.00;;;;;15.94;54.03;155050.81;4993287;28;45404;-76
2022/09/17 02:47:05;;;;;;;;;0.00;0.00;;;;;15.92;54.08;155045.56;4913717;28;46186;-76
2022/09/17 02:49:59;;;;;;;;;1.00;0.00;;;;;15.93;54.24;155048.19;4913497;28;46824;-76
2022/09/17 02:52:46;;;;;;;;;0.00;0.00;;;;;15.91;53.78;155042.91;4927664;28;46898;-76
2022/09/17 02:55:23;;;;;;;;;0.00;0.00;;;;;15.83;54.16;155023.09;4912243;28;45501;-76
2022/09/17 02:57:57;;;;;;;;;1.00;1.00;;;;;15.86;54.38;155028.38;4947017;28;45576;-76
2022/09/17 03:00:23;;;;;;;;;0.00;0.00;;;;;15.87;54.34;155031.00;4925863;28;46242;-77
2022/09/17 03:02:57;;;;;;;;;1.00;1.00;;;;;15.86;54.10;155028.38;4929075;28;45364;-76
2022/09/17 03:05:26;;;;;;;;;2.00;1.00;;;;;15.76;54.13;155004.59;4912977;28;45458;-76
2022/09/17 03:07:54;;;;;;;;;0.67;0.67;;;;;15.81;54.35;155017.81;4897229;28;45604;-76
2022/09/17 03:10:19;;;;;;;;;0.00;0.00;;;;;15.80;54.37;155013.81;4910305;28;46270;-76
2022/09/17 03:12:45;;;;;;;;;0.00;0.00;;;;;15.78;54.32;155008.53;4913117;28;45717;-76
2022/09/17 03:15:10;;;;;;;;;0.00;0.00;;;;;15.76;54.06;155004.59;4897804;28;46310;-76
2022/09/17 03:17:35;;;;;;;;;0.00;0.00;;;;;15.78;54.51;155008.53;4897745;28;45512;-76
2022/09/17 03:20:01;;;;;;;;;0.00;0.00;;;;;15.78;54.46;155009.91;4911774;28;45928;-76
2022/09/17 03:22:27;;;;;;;;;0.00;0.00;;;;;15.68;54.32;154982.09;4924934;28;45393;-76
2022/09/17 03:24:52;;;;;;;;;0.00;0.00;;;;;15.74;54.31;154998.00;4973349;28;45428;-76
2022/09/17 03:27:17;;;;;;;;;0.33;0.33;;;;;15.70;54.48;154987.38;4972277;28;45422;-76
2022/09/17 03:29:43;;;;;;;;;0.00;0.00;;;;;15.72;54.35;154992.72;4964811;28;46098;-75
2022/09/17 03:32:08;;;;;;;;;0.00;0.00;;;;;15.71;54.47;154991.41;5057197;28;45663;-76
2022/09/17 03:34:33;;;;;;;;;1.00;1.00;;;;;15.69;54.64;154984.75;4974530;28;45928;-76
2022/09/17 03:36:59;;;;;;;;;0.67;0.67;;;;;15.68;54.75;154983.41;4973686;28;45738;-75
2022/09/17 03:39:24;;;;;;;;;0.67;0.67;;;;;15.59;54.98;154960.97;4974185;28;46318;-76
2022/09/17 03:41:50;;;;;;;;;1.33;0.33;;;;;15.59;54.96;154959.63;4970924;28;45391;-76
2022/09/17 03:44:17;;;;;;;;;0.00;0.00;;;;;15.60;55.26;154962.28;4972517;28;45527;-76
2022/09/17 03:46:42;;;;;;;;;0.33;0.33;;;;;15.58;55.33;154957.00;4992113;28;45481;-76
2022/09/17 03:49:08;;;;;;;;;0.00;0.00;;;;;15.54;55.46;154946.41;4992676;28;45564;-76
2022/09/17 03:51:33;;;;;;;;;1.00;1.00;;;;;15.55;55.22;154949.09;4991888;28;45445;-76
2022/09/17 03:53:59;;;;;;;;;0.67;0.00;;;;;15.52;55.53;154942.50;4992806;28;45531;-76
2022/09/17 03:56:25;;;;;;;;;0.67;0.00;;;;;15.50;55.74;154935.84;4993070;28;45346;-76
2022/09/17 03:58:51;;;;;;;;;1.00;1.00;;;;;15.50;55.67;154935.84;4991957;28;46520;-76
2022/09/17 04:01:16;;;;;;;;;2.00;0.00;;;;;15.38;55.87;154905.47;4973888;28;45429;-76
2022/09/17 04:03:41;;;;;;;;;1.00;1.00;;;;;15.47;55.75;154929.25;4991216;28;45436;-76
2022/09/17 04:06:07;;;;;;;;;0.00;0.00;;;;;15.47;55.93;154929.25;4993415;28;45413;-76
2022/09/17 04:08:32;;;;;;;;;1.00;1.00;;;;;15.44;56.10;154921.34;4991729;28;46258;-76
2022/09/17 04:10:58;;;;;;;;;1.00;1.00;;;;;15.38;55.97;154906.81;4993456;28;45590;-77
2022/09/17 04:13:23;;;;;;;;;0.00;0.00;;;;;14.89;55.99;154780.06;4990793;28;45385;-76
2022/09/17 04:15:48;;;;;;;;;1.33;0.33;;;;;15.38;56.24;154905.47;4992514;28;45476;-76
2022/09/17 04:18:14;;;;;;;;;2.33;1.00;;;;;15.25;56.26;154871.16;4992494;28;46990;-76
2022/09/17 04:20:40;;;;;;;;;1.67;1.33;;;;;15.26;56.33;154873.78;4991808;28;46732;-76
2022/09/17 04:23:08;;;;;;;;;0.00;0.00;;;;;15.34;56.27;154896.25;4975727;28;45563;-76
2022/09/17 04:25:33;;;;;;;;;2.00;0.00;;;;;15.34;56.38;154896.25;4992800;28;45458;-76
2022/09/17 04:27:58;;;;;;;;;1.33;1.00;;;;;15.33;56.39;154893.59;4991704;28;46468;-76
2022/09/17 04:30:24;;;;;;;;;0.67;0.67;;;;;15.30;56.48;154885.66;4992005;28;45428;-75
2022/09/17 04:32:49;;;;;;;;;0.00;0.00;;;;;15.30;56.60;154884.38;4990320;28;45555;-76
2022/09/17 04:35:15;;;;;;;;;1.00;1.00;;;;;15.30;56.64;154884.38;4988581;28;45414;-76
2022/09/17 04:37:40;;;;;;;;;0.67;0.67;;;;;15.15;56.54;154847.41;4992773;28;45464;-76
2022/09/17 04:40:06;;;;;;;;;2.67;0.67;;;;;15.17;56.82;154852.69;4993224;28;45274;-76
2022/09/17 04:42:32;;;;;;;;;1.00;1.00;;;;;15.22;57.02;154863.22;4991066;28;45486;-69
2022/09/17 04:44:57;;;;;;;;;0.67;0.67;;;;;15.20;57.16;154859.28;4991929;28;45310;-69
2022/09/17 04:47:23;;;;;;;;;0.33;0.33;;;;;15.17;57.08;154851.31;4985935;28;45955;-69
2022/09/17 04:49:48;;;;;;;;;0.67;0.67;;;;;15.17;57.43;154851.31;4993055;28;45282;-69
2022/09/17 04:52:14;;;;;;;;;0.67;0.67;;;;;15.17;57.32;154851.31;4993724;28;45305;-69
2022/09/17 04:54:39;;;;;;;;;0.67;0.67;;;;;15.16;57.26;154848.72;4993546;28;45518;-69
2022/09/17 04:57:05;;;;;;;;;0.67;0.67;;;;;15.15;57.52;154846.09;4975736;28;46272;-69
2022/09/17 04:59:30;;;;;;;;;0.67;0.67;;;;;15.13;57.47;154842.09;4989458;28;45637;-70
2022/09/17 05:01:56;;;;;;;;;0.00;0.00;;;;;15.10;57.67;154834.19;4992473;28;46200;-69
2022/09/17 05:04:21;;;;;;;;;1.00;1.00;;;;;15.06;57.81;154822.31;4991217;28;45422;-69
2022/09/17 05:06:46;;;;;;;;;0.67;0.67;;;;;15.03;57.91;154815.72;4990066;28;45902;-69
2022/09/17 05:09:12;;;;;;;;;1.00;0.67;;;;;15.00;58.01;154807.78;4992183;28;45385;-69
2022/09/17 05:11:37;;;;;;;;;3.00;1.33;;;;;14.95;58.04;154794.56;4992150;28;45446;-69
2022/09/17 05:14:02;;;;;;;;;2.67;0.67;;;;;14.93;58.10;154790.59;4988747;28;45618;-70
2022/09/17 05:16:28;;;;;;;;;2.00;1.00;;;;;14.95;58.09;154794.56;4991298;28;46986;-70
2022/09/17 05:18:53;;;;;;;;;1.67;1.67;;;;;14.88;58.16;154777.41;4991660;28;45523;-69
2022/09/17 05:21:19;;;;;;;;;0.67;0.67;;;;;14.93;58.31;154790.59;4990965;28;45419;-70
2022/09/17 05:23:45;;;;;;;;;1.00;0.33;;;;;14.92;58.38;154787.97;4990291;28;45648;-70
2022/09/17 05:26:10;;;;;;;;;2.33;1.67;;;;;14.91;58.45;154785.38;4983686;28;47101;-70
2022/09/17 05:28:35;;;;;;;;;1.33;0.33;;;;;14.90;58.62;154782.69;4987026;28;45380;-70
2022/09/17 05:31:01;;;;;;;;;1.67;0.67;;;;;14.86;58.37;154770.81;4990359;28;45504;-69
2022/09/17 05:33:27;;;;;;;;;2.67;1.67;;;;;14.90;58.70;154781.38;4991760;28;45381;-69
2022/09/17 05:35:52;;;;;;;;;1.33;1.33;;;;;14.88;58.64;154776.09;4992911;28;45461;-71
2022/09/17 05:38:18;;;;;;;;;0.00;0.00;;;;;14.87;58.72;154774.78;4988772;28;45449;-72
2022/09/17 05:40:44;;;;;;;;;1.67;1.67;;;;;14.84;58.74;154766.84;4988221;28;45579;-69
2022/09/17 05:43:12;;;;;;;;;3.00;1.33;;;;;14.87;58.65;154774.78;4990584;28;45638;-69
2022/09/17 05:45:37;;;;;;;;;3.00;2.00;;;;;14.89;58.67;154778.72;4992797;28;45602;-69
2022/09/17 05:48:05;;;;;;;;;2.33;0.67;;;;;14.88;58.77;154776.09;4993483;28;45518;-70
2022/09/17 05:50:31;;;;;;;;;2.00;2.00;;;;;14.89;58.62;154780.06;4991559;28;45468;-69
2022/09/17 05:53:01;;;;;;;;;0.67;0.67;;;;;14.90;58.69;154782.69;4989484;28;45463;-69
2022/09/17 05:55:27;;;;;;;;;2.67;0.67;;;;;14.89;58.80;154780.06;5010038;28;45511;-70
2022/09/17 05:57:52;;;;;;;;;1.33;0.67;;;;;14.73;58.49;154737.84;4992786;28;45432;-70
2022/09/17 06:00:18;;;;;;;;;2.00;2.00;;;;;14.78;58.62;154752.31;4990745;28;45565;-70
2022/09/17 06:02:43;;;;;;;;;1.33;1.00;;;;;14.89;58.54;154780.06;4989585;28;45496;-70
2022/09/17 06:05:09;;;;;;;;;1.00;1.00;;;;;14.87;58.54;154774.78;4987299;28;52646;-69
2022/09/17 06:07:36;;;;;;;;;1.00;1.00;;;;;14.94;58.57;154791.97;4994067;28;46313;-69
2022/09/17 06:10:03;;;;;;;;;1.00;1.00;;;;;14.96;58.63;154797.19;4992483;28;45434;-70
2022/09/17 06:12:28;;;;;;;;;9.00;6.00;;;;;14.97;58.52;154801.16;4991170;27;45428;-69
2022/09/17 06:14:54;;;;;;;;;3.00;1.00;;;;;14.99;58.49;154806.47;4986763;28;46799;-69
2022/09/17 06:17:19;;;;;;;;;2.33;1.00;;;;;15.00;58.65;154807.78;4989543;28;45504;-69
2022/09/17 06:19:44;;;;;;;;;0.67;0.67;;;;;15.02;58.40;154811.75;4989038;28;45762;-69
2022/09/17 06:22:10;;;;;;;;;2.67;1.67;;;;;15.05;58.27;154819.66;4990825;27;45698;-69
2022/09/17 06:24:35;;;;;;;;;1.67;1.67;;;;;15.06;58.40;154823.63;4993423;28;46145;-69
2022/09/17 06:27:00;;;;;;;;;0.67;0.67;;;;;15.06;58.36;154823.63;4990076;28;45458;-69
2022/09/17 06:29:26;;;;;;;;;1.00;1.00;;;;;14.95;58.55;154795.88;4993034;28;45677;-69
2022/09/17 06:31:52;;;;;;;;;1.33;1.33;;;;;15.12;58.45;154838.13;4971335;28;45544;-69
2022/09/17 06:34:18;;;;;;;;;1.67;1.33;;;;;15.02;58.18;154813.06;4992620;28;47051;-69
2022/09/17 06:36:44;;;;;;;;;0.33;0.33;;;;;15.04;57.81;154817.03;4992900;28;45535;-70
2022/09/17 06:39:10;;;;;;;;;0.67;0.67;;;;;15.13;57.83;154840.81;4976091;28;45424;-69
2022/09/17 06:41:36;;;;;;;;;4.00;1.00;;;;;15.22;57.64;154863.22;4992047;28;45588;-76
2022/09/17 06:44:02;;;;;;;;;2.67;0.67;;;;;15.23;57.49;154865.88;4990491;28;46653;-76
2022/09/17 06:46:28;;;;;;;;;1.33;1.33;;;;;15.25;57.49;154871.16;4983884;28;45548;-76
2022/09/17 06:48:53;;;;;;;;;0.33;0.33;;;;;15.22;57.16;154864.56;4994331;27;45324;-77
2022/09/17 06:51:19;;;;;;;;;0.67;0.67;;;;;15.29;56.98;154881.69;4987843;28;45505;-78
2022/09/17 06:53:44;;;;;;;;;0.67;0.67;;;;;15.31;56.99;154888.34;4990490;28;45414;-77
2022/09/17 06:56:10;;;;;;;;;2.00;1.00;;;;;15.36;57.06;154900.22;4992396;28;45399;-79
2022/09/17 06:58:36;;;;;;;;;2.00;1.00;;;;;15.37;56.76;154902.84;4976219;28;45338;-78
2022/09/17 07:01:02;;;;;;;;;1.67;0.33;;;;;15.32;56.53;154889.66;4992697;28;45525;-77
2022/09/17 07:03:29;;;;;;;;;1.00;1.00;;;;;15.44;56.45;154921.34;4978625;28;46630;-77
2022/09/17 07:05:55;;;;;;;;;0.67;0.67;;;;;15.49;56.51;154933.22;4990790;28;45341;-76
2022/09/17 07:08:21;;;;;;;;;0.00;0.00;;;;;15.50;56.22;154937.19;4987745;28;45470;-79
2022/09/17 07:10:46;;;;;;;;;1.00;1.00;;;;;15.58;55.97;154957.00;4991327;28;45387;-75
2022/09/17 07:13:11;;;;;;;;;1.00;1.00;;;;;15.51;55.45;154939.81;4983463;28;50271;-76
2022/09/17 07:15:37;;;;;;;;;1.33;1.00;;;;;15.73;55.55;154995.34;4983446;28;45263;-76
2022/09/17 07:18:09;;;;;;;;;3.00;2.00;;;;;15.79;55.57;155011.22;4985444;28;45756;-76
2022/09/17 07:20:35;;;;;;;;;0.00;0.00;;;;;15.89;55.08;155037.59;4985111;28;45615;-75
2022/09/17 07:23:00;;;;;;;;;1.67;1.00;;;;;15.92;55.09;155045.56;4965352;28;47095;-75
2022/09/17 07:25:26;;;;;;;;;2.67;1.00;;;;;16.04;54.93;155075.97;4986326;28;45506;-75
2022/09/17 07:27:52;;;;;;;;;1.67;1.67;;;;;16.13;54.21;155098.38;4985331;28;45687;-77
2022/09/17 07:30:19;;;;;;;;;1.67;1.00;;;;;16.14;54.16;154053.44;4995667;28;45916;-76
2022/09/17 07:32:44;;;;;;;;;0.00;0.00;;;;;16.30;53.36;120744.84;4990116;28;47187;-76
2022/09/17 07:35:09;;;;;;;;;0.00;0.00;;;;;16.30;52.90;78412.16;4992795;28;45524;-78
2022/09/17 07:37:35;;;;;;;;;0.00;0.00;;;;;16.46;52.61;55683.75;4976633;28;45494;-76
2022/09/17 07:40:00;;;;;;;;;1.67;0.00;;;;;16.54;52.18;16841.09;4986483;28;45670;-76
2022/09/17 07:42:26;;;;;;;;;0.00;0.00;;;;;16.52;52.24;15597.38;4985868;28;47307;-75
2022/09/17 07:44:52;;;;;;;;;0.00;0.00;;;;;16.72;51.66;-18743.00;4987737;28;45408;-75
2022/09/17 07:47:17;;;;;;;;;0.00;0.00;;;;;16.81;51.68;-19658.47;4991895;28;45309;-76
2022/09/17 07:49:43;;;;;;;;;0.00;0.00;;;;;16.87;50.88;-19660.09;4981224;28;45576;-75
2022/09/17 07:52:08;;;;;;;;;0.00;0.00;;;;;16.96;50.82;-19662.50;4991757;28;48037;-76
2022/09/17 07:54:36;;;;;;;;;0.00;0.00;;;;;17.05;50.46;-19664.78;4970972;28;45446;-75
2022/09/17 07:57:02;;;;;;;;;0.67;0.00;;;;;17.14;50.38;-19667.03;4989784;28;45659;-75
2022/09/17 07:59:27;;;;;;;;;0.00;0.00;;;;;17.17;49.82;-19667.84;4987333;28;45595;-75
2022/09/17 08:01:52;;;;;;;;;0.00;0.00;;;;;17.18;50.33;-19668.13;4987222;27;45574;-75
2022/09/17 08:04:18;;;;;;;;;1.67;0.00;;;;;17.36;49.64;-19672.78;4989151;27;45574;-74
2022/09/17 08:06:47;;;;;;;;;1.00;0.00;;;;;17.42;49.31;-19674.53;4985385;27;45546;-72
2022/09/17 08:09:14;;;;;;;;;0.00;0.00;;;;;17.51;49.31;-19676.94;4991924;28;45445;-72
2022/09/17 08:11:40;;;;;;;;;0.67;0.00;;;;;17.61;49.32;-19679.34;4989585;27;47238;-72
2022/09/17 08:14:08;;;;;;;;;0.00;0.00;;;;;17.70;48.87;-19681.75;4993543;28;45412;-73
2022/09/17 08:16:33;;;;;;;;;1.00;0.00;;;;;17.80;49.29;-19684.44;4964766;28;45422;-73
2022/09/17 08:18:58;;;;;;;;;0.33;0.00;;;;;17.90;49.43;-19686.97;4993645;28;45448;-73
2022/09/17 08:21:24;;;;;;;;;0.00;0.00;;;;;18.03;48.45;-19690.31;4989094;27;46096;-73
2022/09/17 08:23:49;;;;;;;;;0.67;0.00;;;;;18.24;48.55;-19695.81;5018953;27;45630;-73
2022/09/17 08:26:17;;;;;;;;;0.00;0.00;;;;;18.41;48.46;-19700.34;5000772;28;45378;-72
2022/09/17 08:28:48;;;;;;;;;0.00;0.00;;;;;18.50;48.34;-19702.63;4993972;28;45298;-72
2022/09/17 08:31:15;;;;;;;;;0.33;0.00;;;;;18.64;47.57;-19706.38;4986065;27;47063;-72
2022/09/17 08:33:41;;;;;;;;;0.00;0.00;;;;;18.67;47.61;-19707.16;4991642;28;45404;-73
2022/09/17 08:36:10;;;;;;;;;2.67;1.00;;;;;18.74;47.90;-19708.91;4993630;28;45376;-76
2022/09/17 08:38:36;;;;;;;;;0.00;0.00;;;;;18.70;47.81;-19707.84;4974278;28;45436;-73
2022/09/17 08:41:14;;;;;;;;;1.67;1.67;;;;;18.87;47.72;-19712.25;4990724;28;45984;-73
2022/09/17 08:43:50;;;;;;;;;0.67;0.33;;;;;18.93;47.66;-19713.84;4989416;28;45888;-73
2022/09/17 08:46:15;;;;;;;;;3.00;0.00;;;;;19.02;47.82;-19716.25;4992993;28;45306;-72
2022/09/17 08:49:00;;;;;;;;;1.00;0.00;;;;;19.12;47.66;-19718.91;4988399;27;45421;-72
2022/09/17 08:51:47;;;;;;;;;0.00;0.00;;;;;19.16;47.52;-19719.84;4987211;28;45314;-72
2022/09/17 08:54:50;;;;;;;;;0.00;0.00;;;;;19.30;47.87;-19723.59;4991328;28;45639;-72
2022/09/17 08:57:21;;;;;;;;;0.00;0.00;;;;;19.39;47.63;-19726.00;4988243;28;45384;-72
2022/09/17 09:00:06;;;;;;;;;0.00;0.00;;;;;19.47;47.35;-19728.00;4990467;28;45437;-72
2022/09/17 09:02:58;;;;;;;;;0.00;0.00;;;;;19.51;47.10;-19728.94;4989493;28;45895;-72
2022/09/17 09:05:46;;;;;;;;;0.00;0.00;;;;;19.65;46.54;-19732.53;4988448;28;45495;-71
2022/09/17 09:08:20;;;;;;;;;0.00;0.00;;;;;19.74;46.46;-19735.06;4991746;27;45510;-71
2022/09/17 09:10:56;;;;;;;;;0.33;0.00;;;;;19.82;46.85;-19737.06;4985239;28;45539;-71
2022/09/17 09:13:27;;;;;;;;;0.00;0.00;;;;;19.90;46.61;-19739.06;4986908;28;45488;-71
2022/09/17 09:15:58;;;;;;;;;0.33;0.00;;;;;19.94;46.32;-19740.28;4983674;28;45729;-71
2022/09/17 09:18:27;;;;;;;;;0.00;0.00;;;;;20.16;46.29;-19745.88;4985846;27;45423;-72
2022/09/17 09:21:07;;;;;;;;;0.00;0.00;;;;;20.26;45.43;-19748.53;4988370;27;45542;-71
2022/09/17 09:23:51;;;;;;;;;0.00;0.00;;;;;20.47;45.40;-19753.88;4982767;27;46235;-73
2022/09/17 09:26:22;;;;;;;;;0.00;0.00;;;;;20.96;44.73;-19766.69;4989564;27;45590;-73
2022/09/17 09:29:06;;;;;;;;;1.00;0.00;;;;;21.12;43.64;-19770.81;4987566;28;45428;-73
2022/09/17 09:31:57;;;;;;;;;0.00;0.00;;;;;21.12;43.69;-19770.94;4972580;28;45380;-72
2022/09/17 09:34:26;;;;;;;;;0.00;0.00;;;;;21.24;42.96;-19774.13;4985124;27;46140;-72
2022/09/17 09:37:04;;;;;;;;;0.00;0.00;;;;;21.25;42.12;-19774.25;4971459;28;45469;-72
2022/09/17 09:39:34;;;;;;;;;0.00;0.00;;;;;21.34;42.16;-19776.66;4983398;27;46665;-72
2022/09/17 09:42:27;;;;;;;;;3.00;0.67;;;;;21.74;41.50;-19787.03;4986396;28;45656;-72
2022/09/17 09:44:55;;;;;;;;;0.00;0.00;;;;;23.00;40.49;-19819.63;4983759;28;46155;-72
2022/09/17 09:47:42;;;;;;;;;0.67;0.67;;;;;24.87;37.71;-19868.19;4990721;28;45392;-72
2022/09/17 09:50:26;;;;;;;;;0.00;0.00;;;;;26.91;35.77;-19921.00;4989608;28;45569;-73
2022/09/17 09:53:06;;;;;;;;;0.00;0.00;;;;;27.97;33.60;-19946.19;4978974;28;45571;-73
2022/09/17 09:55:31;;;;;;;;;0.00;0.00;;;;;28.88;32.46;-19969.53;4983093;27;45444;-72
2022/09/17 09:58:37;;;;;;;;;0.25;0.25;;;;;30.53;30.75;-18987.31;4982238;27;45387;-76
2022/09/17 10:01:10;;;;;;;;;2.00;0.25;;;;;30.78;29.68;-15916.75;4982402;28;45563;-72
2022/09/17 10:03:40;;;;;;;;;0.00;0.00;;;;;30.48;29.27;-14201.63;4987439;28;45553;-73
2022/09/17 10:06:10;;;;;;;;;1.00;1.00;;;;;31.49;28.29;-13875.72;4992167;28;46013;-73
2022/09/17 10:08:39;;;;;;;;;0.00;0.00;;;;;32.05;27.80;-12170.09;4989349;27;45487;-71
2022/09/17 10:11:10;;;;;;;;;0.50;0.00;;;;;32.31;27.25;-9770.78;4988977;28;45378;-71
2022/09/17 10:13:36;;;;;;;;;2.00;2.00;;;;;31.43;26.97;-5988.81;4990354;28;45553;-71
2022/09/17 10:16:22;;;;;;;;;5.00;4.50;;;;;30.56;27.80;-4271.47;4987655;28;46035;-70
2022/09/17 10:18:50;;;;;;;;;8.00;7.00;;;;;30.70;27.47;-3585.59;4992328;28;45290;-72
2022/09/17 10:21:33;;;;;;;;;4.00;4.00;;;;;31.29;27.27;-4615.47;4991514;27;45634;-71
2022/09/17 10:24:01;;;;;;;;;1.00;1.00;;;;;31.16;26.67;-2898.91;4993406;27;45482;-71
2022/09/17 10:26:31;;;;;;;;;0.00;0.00;;;;;30.73;27.41;-1869.91;4992006;27;45436;-71
2022/09/17 10:29:00;;;;;;;;;2.00;1.00;;;;;30.40;27.50;-841.59;5017469;28;45616;-71
2022/09/17 10:31:25;;;;;;;;;0.00;0.00;;;;;29.91;27.71;1213.94;5005922;28;45432;-71
2022/09/17 10:33:57;;;;;;;;;1.00;1.00;;;;;29.12;28.34;2235.91;4995794;28;45601;-71
2022/09/17 10:36:40;;;;;;;;;2.25;1.00;;;;;28.26;29.11;3254.88;4994886;28;46645;-71
2022/09/17 10:39:35;;;;;;;;;0.50;0.50;;;;;27.48;29.37;5640.72;4995298;28;45509;-70
2022/09/17 10:42:14;;;;;;;;;0.50;0.50;;;;;26.72;30.05;7338.59;4989975;28;45360;-72
2022/09/17 10:44:57;;;;;;;;;1.25;0.00;;;;;27.09;30.63;3584.09;4980856;28;45579;-72
2022/09/17 10:47:29;;;;;;;;;0.00;0.00;;;;;27.78;29.57;3591.91;4997712;28;45575;-71
2022/09/17 10:49:58;;;;;;;;;1.00;0.00;;;;;28.82;28.71;1205.69;4993418;28;45650;-72
2022/09/17 10:52:45;;;;;;;;;1.00;0.00;;;;;30.14;27.62;529.44;4992543;28;45545;-72
2022/09/17 10:55:11;;;;;;;;;1.00;0.00;;;;;31.52;25.77;538.56;4996137;28;45440;-70
2022/09/17 10:57:42;;;;;;;;;0.00;0.00;;;;;32.63;25.19;545.88;4994531;28;45453;-71
2022/09/17 11:00:08;;;;;;;;;3.00;2.75;;;;;33.56;24.78;1587.16;5002815;28;45527;-70
2022/09/17 11:02:56;;;;;;;;;14.67;13.33;;;;;32.98;24.17;11938.28;4987151;28;45343;-71
2022/09/17 11:05:33;;;;;;;;;4.00;4.00;;;;;32.02;23.31;21244.34;4994008;28;45441;-68
2022/09/17 11:08:13;;;;;;;;;1.75;1.75;;;;;31.77;23.71;24002.31;4989758;28;46050;-70
2022/09/17 11:10:44;;;;;;;;;14.67;11.67;;;;;31.94;23.56;24009.69;4985348;28;45466;-69
2022/09/17 11:13:35;;;;;;;;;14.67;14.67;;;;;32.49;23.73;21609.09;4985548;28;45500;-69
2022/09/17 11:16:13;;;;;;;;;2.00;2.00;;;;;32.99;22.61;25096.09;5002040;28;45390;-70
2022/09/17 11:18:42;;;;;;;;;7.33;6.33;;;;;33.37;22.70;26002.44;4981384;28;46215;-69
2022/09/17 11:21:25;;;;;;;;;3.67;3.67;;;;;33.92;21.71;29463.34;4991084;28;46614;-70
2022/09/17 11:24:09;;;;;;;;;8.67;6.00;;;;;34.26;21.93;29600.88;4959059;28;45922;-70
2022/09/17 11:26:40;;;;;;;;;4.67;4.00;;;;;34.54;21.15;33810.88;4975147;28;45444;-70
2022/09/17 11:29:34;;;;;;;;;2.50;2.50;;;;;34.88;20.90;35092.44;4966103;28;47781;-70
2022/09/17 11:32:02;;;;;;;;;3.67;2.33;;;;;34.67;20.61;40702.72;4985658;28;45527;-70
2022/09/17 11:34:57;;;;;;;;;1.25;1.00;;;;;33.63;21.32;45338.09;4987503;28;45805;-70
2022/09/17 11:37:27;;;;;;;;;0.00;0.00;;;;;32.94;21.89;47047.09;4989089;28;45564;-71
2022/09/17 11:39:58;;;;;;;;;0.00;0.00;;;;;32.90;22.03;46341.38;4989223;28;45462;-71
2022/09/17 11:42:33;;;;;;;;;0.00;0.00;;;;;32.18;22.31;49066.09;4990615;28;45675;-75
2022/09/17 11:45:38;;;;;;;;;0.00;0.00;;;;;31.07;23.55;50626.88;4984577;28;45568;-74